Kihei, HI

8:10 PM HST on April 26, 2017 (GMT -1000)
Central Kihei | | Change Station

Elev 26 ft 20.75 °N, 156.45 °W | Updated 11 minutes ago

Partly Cloudy
Partly Cloudy
77.0 °F
Feels Like 79 °F
N
3.0
Wind Variable Wind from NE
Gusts 3.0 mph

Today
High -- | Low -- °F
--% Chance of Precip.
Yesterday
High -- | Low -- °F
Precip. -- in
Pressure 30.06 in
Visibility 10.0 miles
Clouds Clear
Heat Index 79 °F
Dew Point 68 °F
Humidity 74%
Rainfall 0.00 in
Snow Depth Not available.
5:58 AM 6:48 PM
New Moon, 1% visible
METAR PHOG 270554Z 11006KT 10SM CLR 24/19 A3004 RMK AO2 SLP177 T02390194 10294 20239 53021
Pressure 30.06 in
Visibility 10.0 miles
Clouds Clear
Heat Index 79 °F
Dew Point 68 °F
Humidity 74%
Rainfall 0.00 in
Snow Depth Not available.
5:58 AM 6:48 PM
New Moon, 1% visible
METAR PHOG 270554Z 11006KT 10SM CLR 24/19 A3004 RMK AO2 SLP177 T02390194 10294 20239 53021

Get Severe Weather Alerts

Thanks for signing up!

Be on the lookout for a verification email in your inbox.

You'll start receiving the daily forecast at 8 AM.

×

10-Day Weather Forecast

Almanac

Astronomy

Apr. 26, 2017 Rise Set
Actual Time
Civil Twilight
Nautical Twilight
Astronomical Twilight
Moon
Length of Visible Light
Length of Day
Tomorrow will be .
, % of the Moon is Illuminated

Today's Extremes

State Highs State Lows

Community

WunderPhotos

WunderBlog® & News

Nearby

Air Quality

  Air Quality AQ Index Pollutant
Not available.

Snow Depth

Station Depth Elevation

Earthquake Activity

City Distance Mag. Time & Date
Minimum magnitude displayed is 2.5.

Coastal Water Temperatures

Place Temperature

Stations

Nearby Weather Stations

Station Location Temp. Windchill Dew Point Humidity Wind Precip. Elev Updated Type
                   

Watches & Warnings

There are currently no watches in effect.